sensor_id;sensor_type;location;lat;lon;timestamp;P1;durP1;ratioP1;P2;durP2;ratioP2
69989;SDS011;57331;52.054;5.294;2023-01-20T00:01:13;12.53;;;5.57;;
69989;SDS011;57331;52.054;5.294;2023-01-20T00:03:41;12.10;;;5.80;;
69989;SDS011;57331;52.054;5.294;2023-01-20T00:06:10;14.20;;;6.05;;
69989;SDS011;57331;52.054;5.294;2023-01-20T00:08:38;14.38;;;5.38;;
69989;SDS011;57331;52.054;5.294;2023-01-20T00:11:06;11.82;;;5.47;;
69989;SDS011;57331;52.054;5.294;2023-01-20T00:13:34;13.80;;;5.97;;
69989;SDS011;57331;52.054;5.294;2023-01-20T00:16:03;12.63;;;6.25;;
69989;SDS011;57331;52.054;5.294;2023-01-20T00:18:31;9.45;;;4.45;;
69989;SDS011;57331;52.054;5.294;2023-01-20T00:21:04;14.30;;;5.65;;
69989;SDS011;57331;52.054;5.294;2023-01-20T00:23:36;12.70;;;5.50;;
69989;SDS011;57331;52.054;5.294;2023-01-20T00:26:04;14.27;;;6.43;;
69989;SDS011;57331;52.054;5.294;2023-01-20T00:28:36;12.98;;;5.40;;
69989;SDS011;57331;52.054;5.294;2023-01-20T00:33:41;7.95;;;3.50;;
69989;SDS011;57331;52.054;5.294;2023-01-20T00:36:09;12.50;;;5.80;;
69989;SDS011;57331;52.054;5.294;2023-01-20T00:38:37;10.90;;;5.20;;
69989;SDS011;57331;52.054;5.294;2023-01-20T00:41:05;13.82;;;6.32;;
69989;SDS011;57331;52.054;5.294;2023-01-20T00:43:32;18.10;;;6.43;;
69989;SDS011;57331;52.054;5.294;2023-01-20T00:45:59;13.05;;;5.70;;
69989;SDS011;57331;52.054;5.294;2023-01-20T00:48:27;16.98;;;6.07;;
69989;SDS011;57331;52.054;5.294;2023-01-20T00:50:54;11.03;;;5.33;;
69989;SDS011;57331;52.054;5.294;2023-01-20T00:53:21;15.02;;;7.75;;
69989;SDS011;57331;52.054;5.294;2023-01-20T00:55:49;20.38;;;7.53;;
69989;SDS011;57331;52.054;5.294;2023-01-20T00:58:16;14.93;;;7.13;;
69989;SDS011;57331;52.054;5.294;2023-01-20T01:00:47;16.30;;;7.63;;
69989;SDS011;57331;52.054;5.294;2023-01-20T01:03:15;19.80;;;7.97;;
69989;SDS011;57331;52.054;5.294;2023-01-20T01:05:42;18.65;;;8.05;;
69989;SDS011;57331;52.054;5.294;2023-01-20T01:08:10;19.05;;;7.93;;
69989;SDS011;57331;52.054;5.294;2023-01-20T01:10:38;20.65;;;9.02;;
69989;SDS011;57331;52.054;5.294;2023-01-20T01:13:06;20.90;;;9.25;;
69989;SDS011;57331;52.054;5.294;2023-01-20T01:15:33;19.73;;;8.83;;
69989;SDS011;57331;52.054;5.294;2023-01-20T01:18:01;22.55;;;9.27;;
69989;SDS011;57331;52.054;5.294;2023-01-20T01:20:28;14.50;;;6.13;;
69989;SDS011;57331;52.054;5.294;2023-01-20T01:22:55;18.83;;;8.10;;
69989;SDS011;57331;52.054;5.294;2023-01-20T01:25:22;18.02;;;8.45;;
69989;SDS011;57331;52.054;5.294;2023-01-20T01:27:50;20.57;;;9.40;;
69989;SDS011;57331;52.054;5.294;2023-01-20T01:30:17;20.85;;;8.65;;
69989;SDS011;57331;52.054;5.294;2023-01-20T01:32:45;23.35;;;10.02;;
69989;SDS011;57331;52.054;5.294;2023-01-20T01:35:13;17.13;;;7.68;;
69989;SDS011;57331;52.054;5.294;2023-01-20T01:37:41;21.23;;;9.10;;
69989;SDS011;57331;52.054;5.294;2023-01-20T01:40:08;21.10;;;9.27;;
69989;SDS011;57331;52.054;5.294;2023-01-20T01:42:36;19.52;;;8.25;;
69989;SDS011;57331;52.054;5.294;2023-01-20T01:47:37;19.42;;;8.68;;
69989;SDS011;57331;52.054;5.294;2023-01-20T01:50:20;22.13;;;9.13;;
69989;SDS011;57331;52.054;5.294;2023-01-20T01:52:52;19.40;;;8.80;;
69989;SDS011;57331;52.054;5.294;2023-01-20T01:55:21;18.73;;;7.95;;
69989;SDS011;57331;52.054;5.294;2023-01-20T01:57:52;9.90;;;4.88;;
69989;SDS011;57331;52.054;5.294;2023-01-20T02:00:21;25.48;;;9.50;;
69989;SDS011;57331;52.054;5.294;2023-01-20T02:02:49;25.50;;;10.75;;
69989;SDS011;57331;52.054;5.294;2023-01-20T02:05:17;28.53;;;12.27;;
69989;SDS011;57331;52.054;5.294;2023-01-20T02:07:45;24.70;;;10.65;;
69989;SDS011;57331;52.054;5.294;2023-01-20T02:10:14;30.13;;;10.15;;
69989;SDS011;57331;52.054;5.294;2023-01-20T02:12:42;19.77;;;8.18;;
69989;SDS011;57331;52.054;5.294;2023-01-20T02:15:12;30.75;;;12.07;;
69989;SDS011;57331;52.054;5.294;2023-01-20T02:20:23;33.35;;;13.65;;
69989;SDS011;57331;52.054;5.294;2023-01-20T02:23:11;37.03;;;13.38;;
69989;SDS011;57331;52.054;5.294;2023-01-20T02:39:41;46.00;;;14.88;;
69989;SDS011;57331;52.054;5.294;2023-01-20T02:42:26;35.25;;;12.88;;
69989;SDS011;57331;52.054;5.294;2023-01-20T02:45:22;32.90;;;12.67;;
69989;SDS011;57331;52.054;5.294;2023-01-20T02:48:04;41.35;;;15.85;;
69989;SDS011;57331;52.054;5.294;2023-01-20T02:50:57;38.25;;;14.60;;
69989;SDS011;57331;52.054;5.294;2023-01-20T02:53:30;40.35;;;13.70;;
69989;SDS011;57331;52.054;5.294;2023-01-20T02:56:19;21.02;;;9.07;;
69989;SDS011;57331;52.054;5.294;2023-01-20T02:58:51;41.00;;;15.40;;
69989;SDS011;57331;52.054;5.294;2023-01-20T03:01:23;47.90;;;17.83;;
69989;SDS011;57331;52.054;5.294;2023-01-20T03:03:57;45.25;;;14.57;;
69989;SDS011;57331;52.054;5.294;2023-01-20T03:06:27;46.75;;;14.85;;
69989;SDS011;57331;52.054;5.294;2023-01-20T03:08:59;40.50;;;15.15;;
69989;SDS011;57331;52.054;5.294;2023-01-20T03:11:30;31.63;;;12.00;;
69989;SDS011;57331;52.054;5.294;2023-01-20T03:14:09;45.30;;;14.32;;
69989;SDS011;57331;52.054;5.294;2023-01-20T03:16:38;42.53;;;14.63;;
69989;SDS011;57331;52.054;5.294;2023-01-20T03:19:05;28.73;;;11.35;;
69989;SDS011;57331;52.054;5.294;2023-01-20T03:21:33;55.03;;;16.10;;
69989;SDS011;57331;52.054;5.294;2023-01-20T03:24:01;52.50;;;16.33;;
69989;SDS011;57331;52.054;5.294;2023-01-20T03:26:30;42.67;;;15.10;;
69989;SDS011;57331;52.054;5.294;2023-01-20T03:28:57;43.55;;;14.07;;
69989;SDS011;57331;52.054;5.294;2023-01-20T03:32:07;36.15;;;13.27;;
69989;SDS011;57331;52.054;5.294;2023-01-20T03:34:20;50.17;;;15.80;;
69989;SDS011;57331;52.054;5.294;2023-01-20T03:36:50;47.43;;;16.23;;
69989;SDS011;57331;52.054;5.294;2023-01-20T03:39:19;37.42;;;13.32;;
69989;SDS011;57331;52.054;5.294;2023-01-20T03:42:03;52.83;;;16.75;;
69989;SDS011;57331;52.054;5.294;2023-01-20T03:52:17;41.15;;;15.38;;
69989;SDS011;57331;52.054;5.294;2023-01-20T03:55:15;45.67;;;16.02;;
69989;SDS011;57331;52.054;5.294;2023-01-20T03:57:50;52.38;;;16.77;;
69989;SDS011;57331;52.054;5.294;2023-01-20T04:00:22;48.90;;;15.25;;
69989;SDS011;57331;52.054;5.294;2023-01-20T04:02:55;40.17;;;11.93;;
69989;SDS011;57331;52.054;5.294;2023-01-20T04:05:24;42.20;;;12.90;;
69989;SDS011;57331;52.054;5.294;2023-01-20T04:07:51;41.10;;;13.98;;
69989;SDS011;57331;52.054;5.294;2023-01-20T04:10:22;50.88;;;15.77;;
69989;SDS011;57331;52.054;5.294;2023-01-20T04:12:53;26.45;;;10.27;;
69989;SDS011;57331;52.054;5.294;2023-01-20T04:15:20;63.37;;;15.80;;
69989;SDS011;57331;52.054;5.294;2023-01-20T04:17:48;45.97;;;13.85;;
69989;SDS011;57331;52.054;5.294;2023-01-20T04:20:15;43.20;;;15.57;;
69989;SDS011;57331;52.054;5.294;2023-01-20T04:22:45;41.53;;;15.25;;
69989;SDS011;57331;52.054;5.294;2023-01-20T04:25:24;42.03;;;15.27;;
69989;SDS011;57331;52.054;5.294;2023-01-20T04:27:53;38.90;;;13.20;;
69989;SDS011;57331;52.054;5.294;2023-01-20T04:30:20;40.30;;;13.18;;
69989;SDS011;57331;52.054;5.294;2023-01-20T04:32:48;48.25;;;16.55;;
69989;SDS011;57331;52.054;5.294;2023-01-20T04:35:16;41.83;;;15.45;;
69989;SDS011;57331;52.054;5.294;2023-01-20T04:37:45;20.25;;;8.20;;
69989;SDS011;57331;52.054;5.294;2023-01-20T04:40:12;33.77;;;12.03;;
69989;SDS011;57331;52.054;5.294;2023-01-20T04:42:39;36.10;;;11.85;;
69989;SDS011;57331;52.054;5.294;2023-01-20T04:45:08;44.13;;;14.55;;
69989;SDS011;57331;52.054;5.294;2023-01-20T04:47:40;38.05;;;14.45;;
69989;SDS011;57331;52.054;5.294;2023-01-20T04:50:07;34.42;;;11.82;;
69989;SDS011;57331;52.054;5.294;2023-01-20T04:52:35;39.43;;;15.37;;
69989;SDS011;57331;52.054;5.294;2023-01-20T04:55:03;37.25;;;14.60;;
69989;SDS011;57331;52.054;5.294;2023-01-20T04:57:30;37.63;;;12.27;;
69989;SDS011;57331;52.054;5.294;2023-01-20T04:59:57;29.35;;;10.68;;
69989;SDS011;57331;52.054;5.294;2023-01-20T05:02:25;33.33;;;12.40;;
69989;SDS011;57331;52.054;5.294;2023-01-20T05:04:52;23.40;;;9.30;;
69989;SDS011;57331;52.054;5.294;2023-01-20T05:07:19;45.72;;;16.50;;
69989;SDS011;57331;52.054;5.294;2023-01-20T05:09:46;33.88;;;13.23;;
69989;SDS011;57331;52.054;5.294;2023-01-20T05:12:14;30.70;;;13.68;;
69989;SDS011;57331;52.054;5.294;2023-01-20T05:14:41;32.45;;;11.73;;
69989;SDS011;57331;52.054;5.294;2023-01-20T05:17:08;20.70;;;8.03;;
69989;SDS011;57331;52.054;5.294;2023-01-20T05:19:35;54.20;;;17.25;;
69989;SDS011;57331;52.054;5.294;2023-01-20T05:22:03;49.65;;;16.35;;
69989;SDS011;57331;52.054;5.294;2023-01-20T05:24:30;42.33;;;14.30;;
69989;SDS011;57331;52.054;5.294;2023-01-20T05:26:59;35.00;;;12.07;;
69989;SDS011;57331;52.054;5.294;2023-01-20T05:29:27;48.53;;;15.37;;
69989;SDS011;57331;52.054;5.294;2023-01-20T05:31:54;62.40;;;18.45;;
69989;SDS011;57331;52.054;5.294;2023-01-20T05:34:21;61.92;;;19.38;;
69989;SDS011;57331;52.054;5.294;2023-01-20T05:36:52;35.10;;;12.57;;
69989;SDS011;57331;52.054;5.294;2023-01-20T05:39:19;38.30;;;12.70;;
69989;SDS011;57331;52.054;5.294;2023-01-20T05:41:47;65.77;;;19.77;;
69989;SDS011;57331;52.054;5.294;2023-01-20T05:44:14;36.90;;;13.00;;
69989;SDS011;57331;52.054;5.294;2023-01-20T05:46:41;49.38;;;15.57;;
69989;SDS011;57331;52.054;5.294;2023-01-20T05:49:09;57.75;;;18.67;;
69989;SDS011;57331;52.054;5.294;2023-01-20T05:51:40;71.57;;;20.08;;
69989;SDS011;57331;52.054;5.294;2023-01-20T05:54:07;59.23;;;18.20;;
69989;SDS011;57331;52.054;5.294;2023-01-20T05:56:35;45.63;;;16.45;;
69989;SDS011;57331;52.054;5.294;2023-01-20T05:59:02;56.10;;;18.60;;
69989;SDS011;57331;52.054;5.294;2023-01-20T06:01:31;57.40;;;18.80;;
69989;SDS011;57331;52.054;5.294;2023-01-20T06:03:58;57.17;;;18.88;;
69989;SDS011;57331;52.054;5.294;2023-01-20T06:06:25;63.77;;;19.87;;
69989;SDS011;57331;52.054;5.294;2023-01-20T06:08:53;58.95;;;20.15;;
69989;SDS011;57331;52.054;5.294;2023-01-20T06:11:20;64.82;;;18.08;;
69989;SDS011;57331;52.054;5.294;2023-01-20T06:13:47;18.88;;;7.68;;
69989;SDS011;57331;52.054;5.294;2023-01-20T06:16:15;65.75;;;19.55;;
69989;SDS011;57331;52.054;5.294;2023-01-20T06:18:43;59.60;;;19.60;;
69989;SDS011;57331;52.054;5.294;2023-01-20T06:21:10;46.88;;;14.77;;
69989;SDS011;57331;52.054;5.294;2023-01-20T06:23:37;61.05;;;19.75;;
69989;SDS011;57331;52.054;5.294;2023-01-20T06:26:10;43.33;;;15.25;;
69989;SDS011;57331;52.054;5.294;2023-01-20T06:28:38;40.05;;;11.93;;
69989;SDS011;57331;52.054;5.294;2023-01-20T06:31:07;56.13;;;18.90;;
69989;SDS011;57331;52.054;5.294;2023-01-20T06:33:36;54.30;;;17.23;;
69989;SDS011;57331;52.054;5.294;2023-01-20T06:36:04;59.80;;;17.85;;
69989;SDS011;57331;52.054;5.294;2023-01-20T06:38:32;43.40;;;15.23;;
69989;SDS011;57331;52.054;5.294;2023-01-20T06:41:02;49.28;;;15.02;;
69989;SDS011;57331;52.054;5.294;2023-01-20T06:43:31;38.73;;;13.10;;
69989;SDS011;57331;52.054;5.294;2023-01-20T06:46:03;65.35;;;19.77;;
69989;SDS011;57331;52.054;5.294;2023-01-20T06:48:31;50.35;;;16.48;;
69989;SDS011;57331;52.054;5.294;2023-01-20T06:50:59;48.20;;;15.27;;
69989;SDS011;57331;52.054;5.294;2023-01-20T06:53:27;25.42;;;9.90;;
69989;SDS011;57331;52.054;5.294;2023-01-20T06:55:55;34.83;;;9.93;;
69989;SDS011;57331;52.054;5.294;2023-01-20T06:58:24;38.15;;;13.98;;
69989;SDS011;57331;52.054;5.294;2023-01-20T07:00:52;59.03;;;18.15;;
69989;SDS011;57331;52.054;5.294;2023-01-20T07:03:19;44.22;;;15.07;;
69989;SDS011;57331;52.054;5.294;2023-01-20T07:06:00;53.10;;;16.58;;
69989;SDS011;57331;52.054;5.294;2023-01-20T07:08:28;32.07;;;10.87;;
69989;SDS011;57331;52.054;5.294;2023-01-20T07:10:56;36.92;;;11.32;;
69989;SDS011;57331;52.054;5.294;2023-01-20T07:13:23;23.63;;;8.93;;
69989;SDS011;57331;52.054;5.294;2023-01-20T07:15:51;39.70;;;13.90;;
69989;SDS011;57331;52.054;5.294;2023-01-20T07:18:18;45.25;;;16.23;;
69989;SDS011;57331;52.054;5.294;2023-01-20T07:20:45;53.33;;;17.27;;
69989;SDS011;57331;52.054;5.294;2023-01-20T07:23:13;57.53;;;17.85;;
69989;SDS011;57331;52.054;5.294;2023-01-20T07:25:39;55.58;;;18.33;;
69989;SDS011;57331;52.054;5.294;2023-01-20T07:28:07;57.33;;;19.20;;
69989;SDS011;57331;52.054;5.294;2023-01-20T07:30:34;62.75;;;19.17;;
69989;SDS011;57331;52.054;5.294;2023-01-20T07:33:02;54.70;;;17.60;;
69989;SDS011;57331;52.054;5.294;2023-01-20T07:35:30;52.97;;;17.00;;
69989;SDS011;57331;52.054;5.294;2023-01-20T07:37:58;61.85;;;19.10;;
69989;SDS011;57331;52.054;5.294;2023-01-20T07:40:25;34.35;;;11.13;;
69989;SDS011;57331;52.054;5.294;2023-01-20T07:42:52;38.20;;;14.35;;
69989;SDS011;57331;52.054;5.294;2023-01-20T07:45:20;59.30;;;18.33;;
69989;SDS011;57331;52.054;5.294;2023-01-20T07:47:47;36.22;;;10.85;;
69989;SDS011;57331;52.054;5.294;2023-01-20T07:50:14;31.35;;;11.70;;
69989;SDS011;57331;52.054;5.294;2023-01-20T07:52:42;57.53;;;19.77;;
69989;SDS011;57331;52.054;5.294;2023-01-20T07:55:08;54.55;;;17.15;;
69989;SDS011;57331;52.054;5.294;2023-01-20T07:57:36;72.73;;;20.03;;
69989;SDS011;57331;52.054;5.294;2023-01-20T08:00:03;40.15;;;13.50;;
69989;SDS011;57331;52.054;5.294;2023-01-20T08:02:36;59.03;;;18.75;;
69989;SDS011;57331;52.054;5.294;2023-01-20T08:05:04;43.17;;;15.60;;
69989;SDS011;57331;52.054;5.294;2023-01-20T08:07:31;21.23;;;8.35;;
69989;SDS011;57331;52.054;5.294;2023-01-20T08:09:59;50.60;;;16.30;;
69989;SDS011;57331;52.054;5.294;2023-01-20T08:12:27;48.67;;;17.27;;
69989;SDS011;57331;52.054;5.294;2023-01-20T08:14:54;47.58;;;14.95;;
69989;SDS011;57331;52.054;5.294;2023-01-20T08:17:22;50.20;;;15.60;;
69989;SDS011;57331;52.054;5.294;2023-01-20T08:19:49;56.22;;;18.27;;
69989;SDS011;57331;52.054;5.294;2023-01-20T08:22:16;43.10;;;14.77;;
69989;SDS011;57331;52.054;5.294;2023-01-20T08:24:44;37.92;;;14.40;;
69989;SDS011;57331;52.054;5.294;2023-01-20T08:27:11;28.25;;;11.23;;
69989;SDS011;57331;52.054;5.294;2023-01-20T08:29:39;39.40;;;13.75;;
69989;SDS011;57331;52.054;5.294;2023-01-20T08:32:06;31.00;;;12.13;;
69989;SDS011;57331;52.054;5.294;2023-01-20T08:34:33;33.07;;;13.10;;
69989;SDS011;57331;52.054;5.294;2023-01-20T08:37:01;42.55;;;15.55;;
69989;SDS011;57331;52.054;5.294;2023-01-20T08:39:28;40.60;;;13.98;;
69989;SDS011;57331;52.054;5.294;2023-01-20T08:41:55;34.83;;;14.68;;
69989;SDS011;57331;52.054;5.294;2023-01-20T08:44:23;45.67;;;16.40;;
69989;SDS011;57331;52.054;5.294;2023-01-20T08:46:50;32.97;;;11.30;;
69989;SDS011;57331;52.054;5.294;2023-01-20T08:49:19;39.83;;;14.75;;
69989;SDS011;57331;52.054;5.294;2023-01-20T08:51:48;36.78;;;13.23;;
69989;SDS011;57331;52.054;5.294;2023-01-20T08:54:16;25.42;;;9.90;;
69989;SDS011;57331;52.054;5.294;2023-01-20T08:56:44;26.10;;;10.35;;
69989;SDS011;57331;52.054;5.294;2023-01-20T08:59:11;24.77;;;10.80;;
69989;SDS011;57331;52.054;5.294;2023-01-20T09:01:39;37.25;;;14.68;;
69989;SDS011;57331;52.054;5.294;2023-01-20T09:04:08;42.65;;;14.13;;
69989;SDS011;57331;52.054;5.294;2023-01-20T09:06:45;41.90;;;14.85;;
69989;SDS011;57331;52.054;5.294;2023-01-20T09:09:16;40.88;;;14.77;;
69989;SDS011;57331;52.054;5.294;2023-01-20T09:11:45;26.87;;;11.93;;
69989;SDS011;57331;52.054;5.294;2023-01-20T09:14:17;36.08;;;14.57;;
69989;SDS011;57331;52.054;5.294;2023-01-20T09:16:44;15.05;;;6.88;;
69989;SDS011;57331;52.054;5.294;2023-01-20T09:19:12;30.73;;;10.40;;
69989;SDS011;57331;52.054;5.294;2023-01-20T09:21:39;21.65;;;8.75;;
69989;SDS011;57331;52.054;5.294;2023-01-20T09:24:07;31.67;;;14.00;;
69989;SDS011;57331;52.054;5.294;2023-01-20T09:26:34;34.90;;;14.00;;
69989;SDS011;57331;52.054;5.294;2023-01-20T09:29:06;28.27;;;11.32;;
69989;SDS011;57331;52.054;5.294;2023-01-20T09:31:40;42.05;;;15.05;;
69989;SDS011;57331;52.054;5.294;2023-01-20T09:34:15;17.13;;;6.55;;
69989;SDS011;57331;52.054;5.294;2023-01-20T09:36:53;34.03;;;13.77;;
69989;SDS011;57331;52.054;5.294;2023-01-20T09:39:22;24.20;;;10.32;;
69989;SDS011;57331;52.054;5.294;2023-01-20T09:45:14;28.92;;;11.02;;
69989;SDS011;57331;52.054;5.294;2023-01-20T09:48:09;29.80;;;12.95;;
69989;SDS011;57331;52.054;5.294;2023-01-20T09:51:01;31.97;;;13.30;;
69989;SDS011;57331;52.054;5.294;2023-01-20T09:53:54;22.52;;;9.80;;
69989;SDS011;57331;52.054;5.294;2023-01-20T09:56:31;27.15;;;11.15;;
69989;SDS011;57331;52.054;5.294;2023-01-20T10:01:41;29.73;;;12.70;;
69989;SDS011;57331;52.054;5.294;2023-01-20T10:04:32;33.00;;;12.77;;
69989;SDS011;57331;52.054;5.294;2023-01-20T10:07:11;22.48;;;9.40;;
69989;SDS011;57331;52.054;5.294;2023-01-20T10:09:59;31.27;;;11.82;;
69989;SDS011;57331;52.054;5.294;2023-01-20T10:12:31;30.77;;;13.55;;
69989;SDS011;57331;52.054;5.294;2023-01-20T10:22:41;30.23;;;11.82;;
69989;SDS011;57331;52.054;5.294;2023-01-20T10:28:26;32.65;;;12.65;;
69989;SDS011;57331;52.054;5.294;2023-01-20T10:30:55;39.60;;;13.40;;
69989;SDS011;57331;52.054;5.294;2023-01-20T10:33:37;33.22;;;13.95;;
69989;SDS011;57331;52.054;5.294;2023-01-20T10:36:07;30.42;;;11.93;;
69989;SDS011;57331;52.054;5.294;2023-01-20T10:38:53;66.55;;;30.70;;
69989;SDS011;57331;52.054;5.294;2023-01-20T10:41:30;52.92;;;23.98;;
69989;SDS011;57331;52.054;5.294;2023-01-20T10:44:05;39.77;;;15.30;;
69989;SDS011;57331;52.054;5.294;2023-01-20T10:46:40;40.53;;;15.18;;
69989;SDS011;57331;52.054;5.294;2023-01-20T10:52:06;38.95;;;17.70;;
69989;SDS011;57331;52.054;5.294;2023-01-20T10:57:14;64.70;;;31.03;;
69989;SDS011;57331;52.054;5.294;2023-01-20T10:59:56;30.17;;;13.55;;
69989;SDS011;57331;52.054;5.294;2023-01-20T11:02:26;27.17;;;12.68;;
69989;SDS011;57331;52.054;5.294;2023-01-20T11:04:57;32.65;;;13.95;;
69989;SDS011;57331;52.054;5.294;2023-01-20T11:07:44;29.58;;;11.90;;
69989;SDS011;57331;52.054;5.294;2023-01-20T11:10:16;25.27;;;11.40;;
69989;SDS011;57331;52.054;5.294;2023-01-20T11:12:50;31.42;;;12.57;;
69989;SDS011;57331;52.054;5.294;2023-01-20T11:15:24;29.38;;;11.55;;
69989;SDS011;57331;52.054;5.294;2023-01-20T11:20:42;30.08;;;11.65;;
69989;SDS011;57331;52.054;5.294;2023-01-20T11:28:46;20.98;;;9.77;;
69989;SDS011;57331;52.054;5.294;2023-01-20T11:36:42;12.03;;;5.67;;
69989;SDS011;57331;52.054;5.294;2023-01-20T11:39:27;22.75;;;9.40;;
69989;SDS011;57331;52.054;5.294;2023-01-20T11:42:09;19.83;;;9.02;;
69989;SDS011;57331;52.054;5.294;2023-01-20T11:44:44;26.30;;;11.27;;
69989;SDS011;57331;52.054;5.294;2023-01-20T11:47:21;22.67;;;10.27;;
69989;SDS011;57331;52.054;5.294;2023-01-20T11:52:35;50.75;;;24.00;;
69989;SDS011;57331;52.054;5.294;2023-01-20T11:57:38;29.17;;;11.70;;
69989;SDS011;57331;52.054;5.294;2023-01-20T12:02:59;32.07;;;16.13;;
69989;SDS011;57331;52.054;5.294;2023-01-20T12:08:17;28.73;;;11.27;;
69989;SDS011;57331;52.054;5.294;2023-01-20T12:10:49;27.55;;;11.60;;
69989;SDS011;57331;52.054;5.294;2023-01-20T12:13:21;33.05;;;16.02;;
69989;SDS011;57331;52.054;5.294;2023-01-20T12:15:54;45.63;;;20.30;;
69989;SDS011;57331;52.054;5.294;2023-01-20T12:18:42;26.52;;;10.77;;
69989;SDS011;57331;52.054;5.294;2023-01-20T12:21:30;27.90;;;11.93;;
69989;SDS011;57331;52.054;5.294;2023-01-20T12:26:28;16.80;;;7.82;;
69989;SDS011;57331;52.054;5.294;2023-01-20T12:28:58;35.50;;;12.97;;
69989;SDS011;57331;52.054;5.294;2023-01-20T12:31:43;32.63;;;12.52;;
69989;SDS011;57331;52.054;5.294;2023-01-20T12:34:15;32.35;;;12.73;;
69989;SDS011;57331;52.054;5.294;2023-01-20T12:57:50;30.85;;;13.23;;
69989;SDS011;57331;52.054;5.294;2023-01-20T13:06:22;34.42;;;13.60;;
69989;SDS011;57331;52.054;5.294;2023-01-20T13:11:59;32.30;;;12.63;;
69989;SDS011;57331;52.054;5.294;2023-01-20T13:19:27;30.95;;;13.18;;
69989;SDS011;57331;52.054;5.294;2023-01-20T13:22:01;30.03;;;13.83;;
69989;SDS011;57331;52.054;5.294;2023-01-20T13:24:38;36.38;;;13.05;;
69989;SDS011;57331;52.054;5.294;2023-01-20T13:27:08;31.48;;;12.60;;
69989;SDS011;57331;52.054;5.294;2023-01-20T13:29:41;27.02;;;11.13;;
69989;SDS011;57331;52.054;5.294;2023-01-20T13:32:32;28.08;;;12.15;;
69989;SDS011;57331;52.054;5.294;2023-01-20T13:35:00;33.53;;;12.30;;
69989;SDS011;57331;52.054;5.294;2023-01-20T13:37:51;28.92;;;12.45;;
69989;SDS011;57331;52.054;5.294;2023-01-20T13:42:56;33.05;;;14.32;;
69989;SDS011;57331;52.054;5.294;2023-01-20T13:45:24;32.42;;;11.40;;
69989;SDS011;57331;52.054;5.294;2023-01-20T13:50:24;39.92;;;16.75;;
69989;SDS011;57331;52.054;5.294;2023-01-20T13:58:13;29.70;;;11.75;;
69989;SDS011;57331;52.054;5.294;2023-01-20T14:00:41;38.73;;;15.60;;
69989;SDS011;57331;52.054;5.294;2023-01-20T14:05:51;45.58;;;17.05;;
69989;SDS011;57331;52.054;5.294;2023-01-20T14:08:19;35.40;;;14.02;;
69989;SDS011;57331;52.054;5.294;2023-01-20T14:10:47;29.02;;;12.00;;
69989;SDS011;57331;52.054;5.294;2023-01-20T14:13:18;27.83;;;12.00;;
69989;SDS011;57331;52.054;5.294;2023-01-20T14:15:48;33.60;;;12.60;;
69989;SDS011;57331;52.054;5.294;2023-01-20T14:18:20;31.15;;;12.45;;
69989;SDS011;57331;52.054;5.294;2023-01-20T14:23:43;27.90;;;11.23;;
69989;SDS011;57331;52.054;5.294;2023-01-20T14:28:55;26.48;;;11.27;;
69989;SDS011;57331;52.054;5.294;2023-01-20T14:33:58;31.65;;;13.80;;
69989;SDS011;57331;52.054;5.294;2023-01-20T14:36:44;36.17;;;12.40;;
69989;SDS011;57331;52.054;5.294;2023-01-20T14:39:19;30.73;;;11.63;;
69989;SDS011;57331;52.054;5.294;2023-01-20T14:41:51;27.08;;;12.38;;
69989;SDS011;57331;52.054;5.294;2023-01-20T14:44:20;34.15;;;13.05;;
69989;SDS011;57331;52.054;5.294;2023-01-20T14:46:50;35.42;;;14.30;;
69989;SDS011;57331;52.054;5.294;2023-01-20T14:49:30;28.30;;;11.52;;
69989;SDS011;57331;52.054;5.294;2023-01-20T14:51:59;31.37;;;11.80;;
69989;SDS011;57331;52.054;5.294;2023-01-20T14:54:45;28.80;;;11.60;;
69989;SDS011;57331;52.054;5.294;2023-01-20T14:57:22;25.42;;;11.35;;
69989;SDS011;57331;52.054;5.294;2023-01-20T15:00:03;27.45;;;11.85;;
69989;SDS011;57331;52.054;5.294;2023-01-20T15:02:39;33.38;;;13.15;;
69989;SDS011;57331;52.054;5.294;2023-01-20T15:07:47;24.35;;;11.00;;
69989;SDS011;57331;52.054;5.294;2023-01-20T15:10:15;39.08;;;20.25;;
69989;SDS011;57331;52.054;5.294;2023-01-20T15:15:11;22.70;;;10.30;;
69989;SDS011;57331;52.054;5.294;2023-01-20T15:20:31;27.13;;;11.73;;
69989;SDS011;57331;52.054;5.294;2023-01-20T15:22:59;28.00;;;12.27;;
69989;SDS011;57331;52.054;5.294;2023-01-20T15:25:27;24.58;;;9.88;;
69989;SDS011;57331;52.054;5.294;2023-01-20T15:27:55;29.08;;;10.73;;
69989;SDS011;57331;52.054;5.294;2023-01-20T15:30:22;20.17;;;9.77;;
69989;SDS011;57331;52.054;5.294;2023-01-20T15:32:53;22.77;;;10.02;;
69989;SDS011;57331;52.054;5.294;2023-01-20T15:35:21;22.42;;;10.65;;
69989;SDS011;57331;52.054;5.294;2023-01-20T15:37:51;25.60;;;9.93;;
69989;SDS011;57331;52.054;5.294;2023-01-20T15:40:21;31.05;;;14.05;;
69989;SDS011;57331;52.054;5.294;2023-01-20T15:42:49;26.07;;;11.77;;
69989;SDS011;57331;52.054;5.294;2023-01-20T15:45:17;21.33;;;9.90;;
69989;SDS011;57331;52.054;5.294;2023-01-20T15:47:45;24.75;;;12.00;;
69989;SDS011;57331;52.054;5.294;2023-01-20T15:50:21;58.70;;;19.80;;
69989;SDS011;57331;52.054;5.294;2023-01-20T15:52:49;33.38;;;14.52;;
69989;SDS011;57331;52.054;5.294;2023-01-20T15:55:17;23.93;;;10.00;;
69989;SDS011;57331;52.054;5.294;2023-01-20T15:57:45;24.60;;;10.77;;
69989;SDS011;57331;52.054;5.294;2023-01-20T16:00:17;26.17;;;10.15;;
69989;SDS011;57331;52.054;5.294;2023-01-20T16:02:46;24.00;;;11.40;;
69989;SDS011;57331;52.054;5.294;2023-01-20T16:05:14;21.88;;;9.95;;
69989;SDS011;57331;52.054;5.294;2023-01-20T16:07:43;21.07;;;9.53;;
69989;SDS011;57331;52.054;5.294;2023-01-20T16:10:14;21.85;;;9.65;;
69989;SDS011;57331;52.054;5.294;2023-01-20T16:12:43;42.72;;;16.63;;
69989;SDS011;57331;52.054;5.294;2023-01-20T16:15:19;30.38;;;12.32;;
69989;SDS011;57331;52.054;5.294;2023-01-20T16:17:46;19.73;;;9.27;;
69989;SDS011;57331;52.054;5.294;2023-01-20T16:20:23;23.50;;;10.73;;
69989;SDS011;57331;52.054;5.294;2023-01-20T16:22:51;21.85;;;9.48;;
69989;SDS011;57331;52.054;5.294;2023-01-20T16:25:18;26.17;;;10.90;;
69989;SDS011;57331;52.054;5.294;2023-01-20T16:27:46;27.50;;;12.50;;
69989;SDS011;57331;52.054;5.294;2023-01-20T16:30:17;31.40;;;13.93;;
69989;SDS011;57331;52.054;5.294;2023-01-20T16:32:46;31.57;;;12.47;;
69989;SDS011;57331;52.054;5.294;2023-01-20T16:35:14;25.27;;;12.27;;
69989;SDS011;57331;52.054;5.294;2023-01-20T16:37:43;24.10;;;11.63;;
69989;SDS011;57331;52.054;5.294;2023-01-20T16:40:15;27.90;;;12.57;;
69989;SDS011;57331;52.054;5.294;2023-01-20T16:42:44;29.30;;;12.70;;
69989;SDS011;57331;52.054;5.294;2023-01-20T16:45:30;26.27;;;11.23;;
69989;SDS011;57331;52.054;5.294;2023-01-20T16:47:58;28.40;;;13.60;;
69989;SDS011;57331;52.054;5.294;2023-01-20T16:50:25;29.38;;;14.73;;
69989;SDS011;57331;52.054;5.294;2023-01-20T16:52:53;31.67;;;13.73;;
69989;SDS011;57331;52.054;5.294;2023-01-20T16:55:20;28.58;;;12.35;;
69989;SDS011;57331;52.054;5.294;2023-01-20T16:57:49;30.17;;;13.10;;
69989;SDS011;57331;52.054;5.294;2023-01-20T17:00:16;33.78;;;13.50;;
69989;SDS011;57331;52.054;5.294;2023-01-20T17:02:48;33.08;;;15.10;;
69989;SDS011;57331;52.054;5.294;2023-01-20T17:05:19;38.53;;;16.85;;
69989;SDS011;57331;52.054;5.294;2023-01-20T17:07:51;36.35;;;15.88;;